Time;durP1;ratioP1;P1;durP2;ratioP2;P2;SDS_P1;SDS_P2;PMS_P1;PMS_P2;Temp;Humidity;BMP_temperature;BMP_pressure;BME280_temperature;BME280_humidity;BME280_pressure;Samples;Min_cycle;Max_cycle;Signal;HPM_P1;HPM_P2
2023/07/28 00:02:17;;;;;;;2.03;1.43;;;22.00;69.10;21.30;95875.00;;;;5075973;28;20219;-81
2023/07/28 00:04:44;;;;;;;1.60;1.50;;;22.00;69.10;21.30;95872.00;;;;5076739;28;20251;-82
2023/07/28 00:07:12;;;;;;;1.70;1.60;;;22.00;69.00;21.30;95883.00;;;;5076616;28;20251;-82
2023/07/28 00:09:39;;;;;;;1.90;1.70;;;22.00;69.10;21.30;95872.00;;;;5079314;28;20228;-81
2023/07/28 00:12:09;;;;;;;1.80;1.60;;;22.00;69.10;21.30;95874.00;;;;5076178;28;20202;-82
2023/07/28 00:14:36;;;;;;;1.97;1.87;;;22.00;69.00;21.30;95865.00;;;;5076573;28;20206;-84
2023/07/28 00:17:03;;;;;;;1.90;1.80;;;22.00;69.00;21.30;95865.00;;;;5066512;28;20638;-82
2023/07/28 00:19:30;;;;;;;1.97;1.60;;;21.90;69.00;21.30;95866.00;;;;5075580;28;20192;-82
2023/07/28 00:21:58;;;;;;;2.00;1.90;;;21.90;69.00;21.20;95861.00;;;;5075227;28;20198;-81
2023/07/28 00:24:25;;;;;;;1.67;1.57;;;21.90;69.10;21.20;95856.00;;;;5075847;28;20192;-82
2023/07/28 00:26:52;;;;;;;1.80;1.53;;;21.90;69.10;21.20;95864.00;;;;5075982;28;20231;-81
2023/07/28 00:29:21;;;;;;;1.87;1.77;;;21.90;69.20;21.20;95860.00;;;;5080761;28;20703;-82
2023/07/28 00:31:48;;;;;;;2.70;1.60;;;21.90;69.30;21.20;95855.00;;;;5080493;28;20188;-82
2023/07/28 00:34:15;;;;;;;2.17;1.80;;;21.90;69.30;21.20;95858.00;;;;5080556;28;20679;-83
2023/07/28 00:36:45;;;;;;;1.60;1.50;;;21.90;69.30;21.20;95858.00;;;;5074473;28;20631;-83
2023/07/28 00:39:12;;;;;;;1.67;1.57;;;21.90;69.30;21.20;95856.00;;;;5056996;28;20711;-81
2023/07/28 00:41:39;;;;;;;1.50;1.40;;;21.90;69.30;21.20;95855.00;;;;5073672;28;20224;-82
2023/07/28 00:44:07;;;;;;;1.53;1.43;;;21.80;69.30;21.10;95856.00;;;;5074801;28;20204;-82
2023/07/28 00:46:36;;;;;;;1.47;1.37;;;21.80;69.30;21.10;95851.00;;;;5074584;28;20227;-82
2023/07/28 00:49:04;;;;;;;1.67;1.57;;;21.80;69.40;21.10;95845.00;;;;5066769;28;20278;-83
2023/07/28 00:51:33;;;;;;;1.63;1.40;;;21.80;69.40;21.10;95841.00;;;;5073461;28;20754;-82
2023/07/28 00:54:03;;;;;;;1.70;1.60;;;21.80;69.40;21.10;95843.00;;;;5073727;28;20287;-81
2023/07/28 00:56:31;;;;;;;1.97;1.73;;;21.80;69.40;21.10;95834.00;;;;5075071;28;20306;-82
2023/07/28 00:58:58;;;;;;;2.00;1.60;;;21.80;69.50;21.10;95837.00;;;;5074765;28;20276;-81
2023/07/28 01:01:27;;;;;;;2.93;1.63;;;21.70;69.50;21.10;95833.00;;;;5077544;28;20215;-85
2023/07/28 01:03:56;;;;;;;1.90;1.60;;;21.70;69.50;21.10;95837.00;;;;5074168;28;20200;-81
2023/07/28 01:06:38;;;;;;;1.80;1.70;;;21.70;69.40;21.00;95839.00;;;;5075001;28;20757;-82
2023/07/28 01:09:14;;;;;;;1.80;1.53;;;21.70;70.20;21.00;95834.00;;;;5075266;28;20260;-83
2023/07/28 01:11:55;;;;;;;1.93;1.70;;;21.70;69.40;21.00;95826.00;;;;5074937;28;20202;-82
2023/07/28 01:14:22;;;;;;;1.90;1.80;;;21.70;69.60;21.00;95825.00;;;;5085296;28;20278;-82
2023/07/28 01:16:49;;;;;;;1.50;1.40;;;21.70;69.40;21.00;95823.00;;;;5080608;28;20226;-83
2023/07/28 01:19:22;;;;;;;1.83;1.57;;;21.70;69.30;21.00;95827.00;;;;5071056;28;20278;-83
2023/07/28 01:22:02;;;;;;;2.10;1.47;;;21.70;69.20;20.90;95824.00;;;;5077843;28;20216;-82
2023/07/28 01:24:45;;;;;;;2.03;1.60;;;21.60;69.20;20.90;95820.00;;;;5062986;28;20192;-83
2023/07/28 01:27:14;;;;;;;1.53;1.43;;;21.60;69.00;20.80;95822.00;;;;5068948;28;20246;-81
2023/07/28 01:29:42;;;;;;;1.40;1.30;;;21.60;68.90;20.80;95830.00;;;;5079457;28;20191;-82
2023/07/28 01:32:12;;;;;;;1.47;1.37;;;21.60;69.00;20.70;95829.00;;;;5088393;28;20388;-81
2023/07/28 01:34:39;;;;;;;1.67;1.57;;;21.50;69.00;20.70;95827.00;;;;5089868;28;20711;-82
2023/07/28 01:37:07;;;;;;;1.70;1.60;;;21.50;69.00;20.60;95833.00;;;;5080033;28;20223;-84
2023/07/28 01:39:34;;;;;;;1.60;1.50;;;21.40;68.90;20.60;95838.00;;;;5079316;28;20213;-81
2023/07/28 01:42:01;;;;;;;3.27;1.60;;;21.40;68.90;20.60;95837.00;;;;5077179;28;20568;-84
2023/07/28 01:44:30;;;;;;;2.27;1.77;;;21.40;69.00;20.50;95841.00;;;;5073777;28;20660;-81
2023/07/28 01:46:57;;;;;;;1.57;1.47;;;21.30;69.20;20.50;95850.00;;;;5075127;28;20731;-83
2023/07/28 01:49:24;;;;;;;1.73;1.57;;;21.30;70.00;20.50;95848.00;;;;5076937;28;20197;-82
2023/07/28 01:51:52;;;;;;;1.60;1.50;;;21.20;69.30;20.40;95844.00;;;;5068683;28;20203;-84
2023/07/28 01:54:19;;;;;;;2.20;2.00;;;21.30;69.40;20.40;95840.00;;;;5090804;28;20680;-81
2023/07/28 01:56:46;;;;;;;2.03;1.63;;;21.20;69.40;20.40;95846.00;;;;5085232;28;20235;-81
2023/07/28 01:59:14;;;;;;;1.60;1.50;;;21.10;69.30;20.40;95848.00;;;;5075563;28;20206;-82
2023/07/28 02:01:42;;;;;;;2.03;1.80;;;21.10;69.40;20.30;95841.00;;;;5092241;28;20215;-81
2023/07/28 02:04:09;;;;;;;1.83;1.63;;;21.10;69.50;20.30;95843.00;;;;5090141;28;20914;-81
2023/07/28 02:06:37;;;;;;;2.47;1.80;;;21.10;69.40;20.30;95846.00;;;;5063902;28;20223;-81
2023/07/28 02:09:04;;;;;;;1.60;1.50;;;21.10;69.40;20.20;95847.00;;;;5072796;28;20682;-82
2023/07/28 02:11:31;;;;;;;2.13;1.77;;;21.00;70.20;20.20;95844.00;;;;5081702;28;20199;-81
2023/07/28 02:13:59;;;;;;;2.43;1.53;;;21.00;69.50;20.20;95851.00;;;;5084190;28;20203;-81
2023/07/28 02:16:27;;;;;;;1.50;1.40;;;20.90;69.60;20.20;95835.00;;;;5080884;28;20336;-84
2023/07/28 02:18:56;;;;;;;1.97;1.87;;;20.90;69.70;20.20;95848.00;;;;5079134;28;20200;-82
2023/07/28 02:21:23;;;;;;;2.50;1.73;;;20.90;69.90;20.10;95852.00;;;;5080626;28;20216;-83
2023/07/28 02:23:51;;;;;;;2.10;1.90;;;20.90;70.00;20.10;95853.00;;;;5090531;28;20202;-82
2023/07/28 02:26:18;;;;;;;2.30;1.90;;;20.90;70.50;20.10;95843.00;;;;5082213;28;20227;-83
2023/07/28 02:28:45;;;;;;;1.80;1.70;;;20.90;70.10;20.10;95846.00;;;;5085223;28;20199;-82
2023/07/28 02:31:12;;;;;;;1.60;1.50;;;20.90;70.10;20.10;95844.00;;;;5076295;28;20548;-83
2023/07/28 02:33:39;;;;;;;1.67;1.57;;;20.90;70.10;20.10;95846.00;;;;5092054;28;20589;-82
2023/07/28 02:36:08;;;;;;;1.80;1.70;;;20.80;70.10;20.10;95850.00;;;;5072092;28;20229;-82
2023/07/28 02:38:35;;;;;;;1.80;1.70;;;20.80;70.30;20.00;95847.00;;;;5079445;28;20279;-82
2023/07/28 02:41:03;;;;;;;1.80;1.70;;;20.80;70.40;20.00;95849.00;;;;5071557;28;20218;-83
2023/07/28 02:43:31;;;;;;;2.73;1.60;;;20.80;70.50;20.00;95837.00;;;;5079860;28;20196;-83
2023/07/28 02:45:59;;;;;;;1.90;1.80;;;20.80;70.60;20.00;95840.00;;;;5084932;28;20215;-82
2023/07/28 02:48:26;;;;;;;2.00;1.90;;;20.80;70.60;20.00;95838.00;;;;5076231;28;20283;-83
2023/07/28 02:50:54;;;;;;;2.33;2.00;;;20.80;70.50;20.00;95840.00;;;;5075491;28;20200;-81
2023/07/28 02:53:23;;;;;;;1.97;1.80;;;20.80;70.40;19.90;95838.00;;;;5072329;28;20220;-82
2023/07/28 02:55:51;;;;;;;1.60;1.50;;;20.70;70.40;19.90;95836.00;;;;5068243;28;20209;-82
2023/07/28 02:58:18;;;;;;;3.40;2.17;;;20.70;70.30;19.90;95840.00;;;;5071753;28;20188;-83
2023/07/28 03:00:46;;;;;;;2.10;1.90;;;20.70;70.20;19.80;95840.00;;;;5085897;28;20233;-81
2023/07/28 03:03:13;;;;;;;1.80;1.70;;;20.60;70.20;19.80;95840.00;;;;5074310;28;20282;-82
2023/07/28 03:05:41;;;;;;;2.17;1.97;;;20.60;70.20;19.80;95840.00;;;;5080859;28;20202;-82
2023/07/28 03:08:09;;;;;;;1.67;1.57;;;20.60;70.20;19.80;95834.00;;;;5077392;28;20269;-84
2023/07/28 03:10:37;;;;;;;2.70;1.77;;;20.60;70.10;19.70;95835.00;;;;5080049;28;20206;-82
2023/07/28 03:13:04;;;;;;;1.87;1.77;;;20.60;70.00;19.70;95845.00;;;;5071155;28;20210;-83
2023/07/28 03:15:31;;;;;;;1.87;1.60;;;20.50;70.00;19.70;95844.00;;;;5086177;28;20192;-81
2023/07/28 03:17:58;;;;;;;1.97;1.57;;;20.50;70.10;19.60;95852.00;;;;5073160;28;20206;-86
2023/07/28 03:20:26;;;;;;;2.20;1.63;;;20.40;70.00;19.60;95840.00;;;;5091735;28;20194;-82
2023/07/28 03:22:54;;;;;;;2.50;1.50;;;20.40;70.10;19.50;95840.00;;;;5076863;28;20211;-84
2023/07/28 03:25:22;;;;;;;2.03;1.70;;;20.40;70.10;19.50;95837.00;;;;5080433;28;20249;-83
2023/07/28 03:27:50;;;;;;;2.47;1.80;;;20.40;70.00;19.50;95842.00;;;;5076840;28;20242;-84
2023/07/28 03:30:17;;;;;;;1.77;1.67;;;20.30;70.00;19.50;95845.00;;;;5090063;28;20211;-82
2023/07/28 03:32:44;;;;;;;1.97;1.73;;;20.30;70.00;19.40;95844.00;;;;5082728;28;20199;-82
2023/07/28 03:35:12;;;;;;;1.60;1.50;;;20.30;70.00;19.40;95838.00;;;;5080482;28;20195;-83
2023/07/28 03:37:39;;;;;;;2.40;1.53;;;20.20;70.60;19.40;95837.00;;;;5080559;28;20216;-83
2023/07/28 03:40:08;;;;;;;5.17;2.13;;;20.20;69.80;19.30;95841.00;;;;5081718;28;20192;-83
2023/07/28 03:42:36;;;;;;;1.87;1.77;;;20.20;69.80;19.30;95823.00;;;;5089078;28;20709;-83
2023/07/28 03:45:05;;;;;;;2.43;1.70;;;20.10;69.80;19.20;95828.00;;;;5087998;28;20706;-83
2023/07/28 03:47:32;;;;;;;1.80;1.70;;;20.10;69.90;19.20;95827.00;;;;5079922;28;20298;-81
2023/07/28 03:49:59;;;;;;;3.07;2.07;;;20.10;69.80;19.20;95842.00;;;;5096464;28;20235;-81
2023/07/28 03:52:27;;;;;;;1.80;1.70;;;20.00;69.90;19.10;95838.00;;;;5087074;28;20701;-85
2023/07/28 03:54:54;;;;;;;2.07;1.87;;;20.00;70.00;19.10;95839.00;;;;5058079;28;20207;-81
2023/07/28 03:57:21;;;;;;;2.00;1.77;;;20.00;70.00;19.10;95838.00;;;;5079636;28;20213;-82
2023/07/28 03:59:49;;;;;;;2.13;1.93;;;20.00;70.00;19.10;95838.00;;;;5083962;28;20197;-81
2023/07/28 04:02:17;;;;;;;2.47;2.00;;;19.90;69.90;19.00;95844.00;;;;5074581;28;20595;-82
2023/07/28 04:04:45;;;;;;;2.67;2.07;;;19.90;69.90;19.00;95843.00;;;;5085060;28;20201;-81
2023/07/28 04:07:12;;;;;;;1.87;1.77;;;19.90;70.10;19.00;95847.00;;;;5090198;28;20230;-81
2023/07/28 04:09:39;;;;;;;1.80;1.70;;;19.80;70.20;19.00;95851.00;;;;5074677;28;20687;-82
2023/07/28 04:12:07;;;;;;;1.80;1.70;;;19.80;70.50;19.00;95849.00;;;;5091603;28;20192;-82
2023/07/28 04:14:36;;;;;;;1.83;1.73;;;19.80;70.70;19.00;95848.00;;;;5090371;28;20202;-81
2023/07/28 04:17:03;;;;;;;2.20;2.00;;;19.80;70.80;19.00;95850.00;;;;5090047;28;20720;-85
2023/07/28 04:19:33;;;;;;;2.10;1.90;;;19.80;70.80;19.00;95851.00;;;;5073353;28;20203;-81
2023/07/28 04:22:01;;;;;;;1.80;1.70;;;19.80;70.90;19.00;95845.00;;;;5086073;28;20266;-82
2023/07/28 04:24:28;;;;;;;2.67;2.00;;;19.80;71.00;19.00;95856.00;;;;5085737;28;20267;-83
2023/07/28 04:26:56;;;;;;;2.10;1.90;;;19.80;70.90;19.00;95851.00;;;;5071828;28;20300;-83
2023/07/28 04:29:23;;;;;;;2.03;1.93;;;19.80;71.00;19.00;95856.00;;;;5081741;28;20203;-81
2023/07/28 04:31:50;;;;;;;2.13;1.90;;;19.80;71.00;19.00;95847.00;;;;5085225;28;20295;-81
2023/07/28 04:34:17;;;;;;;1.70;1.50;;;19.80;71.10;19.00;95852.00;;;;5077813;28;20199;-81
2023/07/28 04:36:46;;;;;;;1.90;1.70;;;19.80;71.10;19.00;95855.00;;;;5080504;28;20222;-83
2023/07/28 04:39:13;;;;;;;1.90;1.80;;;19.80;71.10;19.00;95848.00;;;;5095022;28;20192;-83
2023/07/28 04:41:40;;;;;;;1.90;1.80;;;19.80;71.10;19.00;95848.00;;;;5087059;28;20587;-83
2023/07/28 04:44:07;;;;;;;2.53;2.30;;;19.90;71.20;19.00;95848.00;;;;5085846;28;20194;-82
2023/07/28 04:46:34;;;;;;;2.70;1.90;;;19.90;72.00;19.00;95856.00;;;;5083234;28;20719;-83
2023/07/28 04:49:02;;;;;;;1.80;1.70;;;19.90;71.30;19.00;95851.00;;;;5079088;28;20196;-83
2023/07/28 04:51:29;;;;;;;2.23;2.00;;;19.90;71.40;19.10;95856.00;;;;5075728;28;20595;-83
2023/07/28 04:53:58;;;;;;;2.33;2.00;;;19.90;71.40;19.10;95863.00;;;;5074298;28;20210;-82
2023/07/28 04:56:26;;;;;;;1.83;1.73;;;19.90;72.30;19.10;95863.00;;;;5081313;28;20219;-82
2023/07/28 04:58:53;;;;;;;2.33;2.13;;;20.00;71.70;19.10;95857.00;;;;5078221;28;20196;-82
2023/07/28 05:01:20;;;;;;;2.17;1.97;;;20.00;71.80;19.20;95868.00;;;;5096272;28;20232;-83
2023/07/28 05:03:47;;;;;;;1.90;1.80;;;20.00;71.90;19.20;95871.00;;;;5087970;28;20196;-82
2023/07/28 05:06:15;;;;;;;2.87;2.00;;;20.00;72.10;19.20;95873.00;;;;5096594;28;20213;-82
2023/07/28 05:08:42;;;;;;;2.10;2.00;;;20.00;72.20;19.30;95865.00;;;;5075060;28;20201;-82
2023/07/28 05:11:11;;;;;;;2.43;1.83;;;20.00;72.30;19.40;95869.00;;;;5072984;28;20282;-82
2023/07/28 05:13:38;;;;;;;2.23;1.83;;;20.10;72.50;19.40;95870.00;;;;5090439;28;20201;-84
2023/07/28 05:16:05;;;;;;;2.10;1.90;;;20.10;72.50;19.50;95876.00;;;;5093942;28;20211;-82
2023/07/28 05:18:33;;;;;;;1.83;1.73;;;20.20;72.60;19.60;95876.00;;;;5077756;28;20192;-84
2023/07/28 05:21:00;;;;;;;2.07;1.77;;;20.20;72.50;19.60;95884.00;;;;5077226;28;20192;-82
2023/07/28 05:23:27;;;;;;;1.90;1.70;;;20.30;72.40;19.70;95886.00;;;;5084567;28;20191;-83
2023/07/28 05:25:54;;;;;;;2.20;2.00;;;20.30;72.40;19.80;95880.00;;;;5091278;28;20223;-83
2023/07/28 05:28:23;;;;;;;2.40;1.90;;;20.40;72.40;19.90;95890.00;;;;5073289;28;20596;-82
2023/07/28 05:30:50;;;;;;;2.37;2.17;;;20.50;72.30;19.90;95891.00;;;;5075130;28;20196;-82
2023/07/28 05:33:17;;;;;;;3.00;1.90;;;20.50;72.30;20.00;95889.00;;;;5095987;28;20203;-83
2023/07/28 05:35:44;;;;;;;1.93;1.50;;;20.60;72.40;20.10;95886.00;;;;5093645;28;20260;-84
2023/07/28 05:38:11;;;;;;;1.77;1.67;;;20.60;72.40;20.20;95886.00;;;;5087098;28;20195;-83
2023/07/28 05:40:38;;;;;;;2.07;1.97;;;20.70;72.30;20.20;95886.00;;;;5089656;28;20198;-83
2023/07/28 05:43:06;;;;;;;2.20;2.00;;;20.80;72.00;20.30;95883.00;;;;5078104;28;20229;-84
2023/07/28 05:45:34;;;;;;;1.80;1.70;;;20.80;71.80;20.30;95887.00;;;;5080972;28;20205;-83
2023/07/28 05:48:01;;;;;;;2.43;2.07;;;20.90;71.90;20.40;95897.00;;;;5088080;28;20295;-84
2023/07/28 05:50:28;;;;;;;2.30;1.60;;;21.00;72.00;20.40;95908.00;;;;5080027;28;20194;-82
2023/07/28 05:52:56;;;;;;;1.57;1.47;;;21.00;71.80;20.50;95903.00;;;;5079576;28;20207;-83
2023/07/28 05:55:23;;;;;;;7.03;1.83;;;21.10;71.60;20.50;95895.00;;;;5076291;28;20655;-83
2023/07/28 05:57:50;;;;;;;2.07;1.70;;;21.10;71.50;20.60;95899.00;;;;5080980;28;20257;-81
2023/07/28 06:00:18;;;;;;;1.50;1.40;;;21.10;71.40;20.60;95896.00;;;;5075829;28;20212;-80
2023/07/28 06:02:47;;;;;;;2.40;1.70;;;21.20;71.40;20.60;95899.00;;;;5081385;28;20774;-81
2023/07/28 06:05:14;;;;;;;1.60;1.50;;;21.20;71.30;20.70;95891.00;;;;5082534;28;20631;-81
2023/07/28 06:07:41;;;;;;;2.23;1.57;;;21.30;71.30;20.70;95898.00;;;;5091298;28;20299;-80
2023/07/28 06:10:09;;;;;;;1.83;1.73;;;21.30;71.40;20.80;95892.00;;;;5088279;28;20204;-81
2023/07/28 06:12:36;;;;;;;2.00;1.60;;;21.30;71.30;20.80;95903.00;;;;5084258;28;20212;-82
2023/07/28 06:15:05;;;;;;;2.07;1.60;;;21.40;71.20;20.90;95901.00;;;;5080764;28;20192;-82
2023/07/28 06:17:32;;;;;;;2.03;1.93;;;21.40;71.20;20.90;95897.00;;;;5076046;28;20216;-82
2023/07/28 06:20:01;;;;;;;1.43;1.33;;;21.50;71.30;21.00;95904.00;;;;5079304;28;20200;-82
2023/07/28 06:22:28;;;;;;;1.47;1.37;;;21.50;71.50;21.10;95909.00;;;;5072541;28;20239;-83
2023/07/28 06:24:56;;;;;;;1.50;1.40;;;21.60;71.60;21.10;95911.00;;;;5065207;28;20471;-82
2023/07/28 06:27:23;;;;;;;1.40;1.30;;;21.60;71.40;21.20;95909.00;;;;5074477;28;20215;-82
2023/07/28 06:29:51;;;;;;;1.50;1.40;;;21.70;71.40;21.30;95911.00;;;;5072834;28;20189;-82
2023/07/28 06:32:18;;;;;;;1.83;1.73;;;21.70;71.50;21.40;95908.00;;;;5075669;28;20204;-83
2023/07/28 06:34:45;;;;;;;1.60;1.50;;;21.80;71.60;21.50;95912.00;;;;5074697;28;20699;-83
2023/07/28 06:37:14;;;;;;;1.40;1.30;;;21.90;71.70;21.60;95914.00;;;;5075234;28;20227;-84
2023/07/28 06:39:41;;;;;;;1.60;1.40;;;22.00;71.70;21.70;95916.00;;;;5074620;28;20203;-84
2023/07/28 06:42:08;;;;;;;1.47;1.30;;;22.10;71.90;21.80;95918.00;;;;5066220;28;20216;-84
2023/07/28 06:44:35;;;;;;;1.53;1.43;;;22.20;72.00;21.90;95926.00;;;;5073547;28;20215;-83
2023/07/28 06:47:03;;;;;;;1.70;1.60;;;22.30;72.10;22.10;95920.00;;;;5068606;28;20215;-83
2023/07/28 06:49:30;;;;;;;3.07;1.60;;;22.40;72.00;22.20;95916.00;;;;5084836;28;20200;-83
2023/07/28 06:51:57;;;;;;;1.40;1.30;;;22.50;71.50;22.40;95926.00;;;;5064484;28;20573;-83
2023/07/28 06:54:26;;;;;;;2.17;1.20;;;22.70;71.40;22.50;95924.00;;;;5072061;28;20200;-83
2023/07/28 06:56:53;;;;;;;1.27;1.17;;;22.80;71.30;22.60;95916.00;;;;5071361;28;20220;-82
2023/07/28 06:59:21;;;;;;;1.30;1.20;;;22.90;71.40;22.80;95927.00;;;;5072147;28;20569;-83
2023/07/28 07:01:48;;;;;;;1.73;1.30;;;23.10;71.60;22.90;95920.00;;;;5066252;28;20323;-83
2023/07/28 07:04:15;;;;;;;1.63;1.30;;;23.20;72.10;23.00;95922.00;;;;5069942;28;20647;-84
2023/07/28 07:06:43;;;;;;;1.30;1.20;;;23.30;71.20;23.20;95926.00;;;;5055106;28;20271;-83
2023/07/28 07:09:14;;;;;;;1.60;1.50;;;23.40;70.80;23.30;95931.00;;;;5069683;28;20210;-83
2023/07/28 07:11:43;;;;;;;1.80;1.37;;;23.60;71.10;23.40;95927.00;;;;5074492;28;20200;-83
2023/07/28 07:14:10;;;;;;;1.30;1.20;;;23.70;71.00;23.60;95924.00;;;;5072736;28;20262;-84
2023/07/28 07:16:37;;;;;;;1.30;1.20;;;23.80;71.70;23.70;95927.00;;;;5071327;28;20315;-83
2023/07/28 07:19:04;;;;;;;1.33;1.23;;;24.00;70.90;23.80;95926.00;;;;5078006;28;20199;-83
2023/07/28 07:21:32;;;;;;;1.20;1.10;;;24.10;70.80;24.00;95930.00;;;;5071598;28;20203;-83
2023/07/28 07:23:59;;;;;;;1.40;1.30;;;24.20;70.80;24.10;95934.00;;;;5073695;28;20192;-83
2023/07/28 07:26:26;;;;;;;1.50;1.20;;;24.30;70.20;24.20;95940.00;;;;5065997;28;20306;-84
2023/07/28 07:28:55;;;;;;;2.20;1.03;;;24.40;69.90;24.20;95941.00;;;;5072356;28;20207;-84
2023/07/28 07:31:23;;;;;;;2.60;1.30;;;24.50;69.80;24.30;95941.00;;;;5068451;28;20639;-85
2023/07/28 07:33:51;;;;;;;3.23;1.37;;;24.60;69.60;24.40;95936.00;;;;5070762;28;20223;-85
2023/07/28 07:36:20;;;;;;;1.40;1.30;;;24.70;69.70;24.60;95951.00;;;;5068620;28;20215;-85
2023/07/28 07:38:49;;;;;;;1.40;1.30;;;24.80;69.50;24.70;95951.00;;;;5061903;28;20203;-83
2023/07/28 07:41:19;;;;;;;1.40;1.30;;;24.90;69.30;24.80;95948.00;;;;5067977;28;20199;-84
2023/07/28 07:43:46;;;;;;;1.80;1.50;;;25.10;69.30;24.90;95961.00;;;;5069484;28;20271;-83
2023/07/28 07:46:16;;;;;;;1.27;1.17;;;25.20;69.20;25.00;95961.00;;;;5067030;28;20216;-82
2023/07/28 07:48:43;;;;;;;2.97;1.87;;;25.30;68.30;25.10;95952.00;;;;5075467;28;20254;-83
2023/07/28 07:51:10;;;;;;;1.10;1.10;;;25.40;68.20;25.20;95970.00;;;;5069976;28;20192;-83
2023/07/28 07:53:37;;;;;;;1.23;1.13;;;25.50;67.70;25.30;95971.00;;;;5072323;28;20239;-85
2023/07/28 07:56:06;;;;;;;2.33;1.13;;;25.60;67.80;25.40;95974.00;;;;5059219;28;20216;-85
2023/07/28 07:58:34;;;;;;;0.93;0.83;;;25.70;67.70;25.50;95972.00;;;;5072500;28;20547;-84
2023/07/28 08:01:02;;;;;;;1.57;1.43;;;25.80;67.20;25.60;95983.00;;;;5062805;28;20200;-83
2023/07/28 08:03:31;;;;;;;1.70;1.00;;;25.90;66.60;25.70;95988.00;;;;5066185;28;20224;-83
2023/07/28 08:05:59;;;;;;;1.33;1.23;;;26.00;66.00;25.70;95971.00;;;;5072558;28;20275;-82
2023/07/28 08:08:27;;;;;;;3.20;1.30;;;26.00;65.40;25.80;95981.00;;;;5073863;28;20203;-82
2023/07/28 08:10:54;;;;;;;2.07;1.00;;;26.10;65.40;25.80;95983.00;;;;5072841;28;20196;-82
2023/07/28 08:13:22;;;;;;;2.07;1.07;;;26.10;64.90;25.80;95988.00;;;;5073139;28;20204;-83
2023/07/28 08:15:49;;;;;;;1.70;1.30;;;26.10;64.80;25.90;95982.00;;;;5074212;28;20315;-84
2023/07/28 08:18:16;;;;;;;1.50;1.30;;;26.20;65.50;26.00;95992.00;;;;5071182;28;20198;-84
2023/07/28 08:20:45;;;;;;;1.20;1.20;;;26.30;64.60;26.10;95990.00;;;;5066008;28;20676;-84
2023/07/28 08:23:12;;;;;;;1.47;1.07;;;26.30;64.30;26.20;95993.00;;;;5068519;28;20220;-83
2023/07/28 08:25:39;;;;;;;1.20;1.10;;;26.40;65.10;26.30;95992.00;;;;5065648;28;20241;-84
2023/07/28 08:28:06;;;;;;;1.00;1.00;;;26.50;64.80;26.40;95990.00;;;;5073054;28;20200;-83
2023/07/28 08:30:34;;;;;;;1.53;1.30;;;26.60;64.80;26.40;95992.00;;;;5059685;28;20880;-83
2023/07/28 08:33:02;;;;;;;3.70;1.47;;;26.70;64.20;26.50;95991.00;;;;5070951;28;20697;-83
2023/07/28 08:35:29;;;;;;;1.50;1.40;;;26.80;63.50;26.60;95992.00;;;;5074649;28;20606;-83
2023/07/28 08:37:57;;;;;;;1.47;1.37;;;26.80;63.50;26.60;95994.00;;;;5069802;28;20202;-83
2023/07/28 08:40:27;;;;;;;1.47;1.30;;;26.90;63.40;26.70;95998.00;;;;5072283;28;20546;-83
2023/07/28 08:42:55;;;;;;;1.43;1.20;;;26.90;63.20;26.70;95993.00;;;;5081227;28;20219;-83
2023/07/28 08:45:24;;;;;;;1.50;1.00;;;27.00;63.10;26.70;95992.00;;;;5077293;28;20222;-83
2023/07/28 08:47:51;;;;;;;1.40;1.30;;;27.00;62.40;26.80;96003.00;;;;5069730;28;20220;-83
2023/07/28 08:50:19;;;;;;;1.20;1.20;;;27.10;62.50;26.80;95991.00;;;;5088040;28;20226;-83
2023/07/28 08:52:46;;;;;;;1.77;1.17;;;27.10;62.10;26.90;95999.00;;;;5088718;28;20212;-83
2023/07/28 08:55:15;;;;;;;1.30;1.20;;;27.10;61.90;26.90;95999.00;;;;5079879;28;20195;-83
2023/07/28 08:57:43;;;;;;;2.00;1.30;;;27.20;61.90;27.00;95988.00;;;;5082234;28;20219;-83
2023/07/28 09:00:13;;;;;;;1.08;1.05;;;27.20;61.40;27.00;95991.00;;;;5074858;28;20206;-83
2023/07/28 09:02:42;;;;;;;1.60;1.50;;;27.20;61.30;27.00;95987.00;;;;5074262;28;20269;-84
2023/07/28 09:05:19;;;;;;;1.45;1.35;;;27.30;61.00;27.10;95983.00;;;;5069229;28;20191;-83
2023/07/28 09:07:47;;;;;;;1.30;1.20;;;27.40;59.90;27.10;95989.00;;;;5086716;28;20219;-84
2023/07/28 09:10:16;;;;;;;1.33;1.23;;;27.40;60.40;27.20;95985.00;;;;5081933;28;20252;-84
2023/07/28 09:12:47;;;;;;;1.80;1.70;;;27.40;60.80;27.20;95992.00;;;;5082251;28;20741;-84
2023/07/28 09:15:14;;;;;;;1.67;1.40;;;27.50;60.40;27.30;95997.00;;;;5082721;28;20202;-84
2023/07/28 09:17:44;;;;;;;1.48;1.38;;;27.50;60.70;27.30;95991.00;;;;5079461;28;20224;-84
2023/07/28 09:20:16;;;;;;;1.40;1.30;;;27.60;60.00;27.30;96002.00;;;;5075623;28;20286;-83
2023/07/28 09:22:43;;;;;;;1.35;1.25;;;27.60;59.90;27.30;96004.00;;;;5076112;28;20227;-84
2023/07/28 09:25:17;;;;;;;1.10;1.10;;;27.60;59.90;27.40;96008.00;;;;5084279;28;20196;-83
2023/07/28 09:27:51;;;;;;;1.52;1.42;;;27.60;60.20;27.40;96004.00;;;;5074585;28;20228;-84
2023/07/28 09:30:19;;;;;;;2.97;1.45;;;27.60;59.60;27.40;95998.00;;;;5090105;28;20259;-83
2023/07/28 09:32:50;;;;;;;1.10;1.08;;;27.70;60.20;27.50;95985.00;;;;5096928;28;20196;-84
2023/07/28 09:35:18;;;;;;;2.03;1.10;;;27.70;60.70;27.60;95986.00;;;;5092617;28;20234;-83
2023/07/28 09:37:49;;;;;;;1.25;1.15;;;27.80;60.50;27.80;95982.00;;;;5079027;28;20690;-83
2023/07/28 09:40:19;;;;;;;1.27;1.17;;;27.90;60.50;27.90;95985.00;;;;5077884;28;20196;-83
2023/07/28 09:42:50;;;;;;;1.40;1.30;;;28.00;60.00;28.00;95990.00;;;;5087592;28;20220;-83
2023/07/28 09:45:19;;;;;;;1.00;1.00;;;28.20;59.70;28.10;95982.00;;;;5078209;28;20769;-83
2023/07/28 09:47:48;;;;;;;1.40;1.30;;;28.30;59.40;28.20;95978.00;;;;5074182;28;20261;-84
2023/07/28 09:50:19;;;;;;;1.52;1.42;;;28.30;59.00;28.30;95977.00;;;;5077460;28;20199;-84
2023/07/28 09:52:50;;;;;;;1.00;1.00;;;28.40;58.70;28.30;95975.00;;;;5075485;28;20713;-83
2023/07/28 09:55:19;;;;;;;1.50;1.17;;;28.50;58.20;28.40;95982.00;;;;5072667;28;20192;-84
2023/07/28 09:57:53;;;;;;;1.30;1.20;;;28.60;58.20;28.50;95980.00;;;;5073943;28;20220;-84
2023/07/28 10:00:23;;;;;;;0.90;0.90;;;28.60;58.20;28.50;95971.00;;;;5049515;28;20192;-85
2023/07/28 10:02:51;;;;;;;1.48;1.38;;;28.70;57.70;28.60;95985.00;;;;5079223;28;20226;-84
2023/07/28 10:05:19;;;;;;;1.30;1.20;;;28.70;57.60;28.60;95987.00;;;;5075278;28;20199;-83
2023/07/28 10:07:49;;;;;;;1.23;1.13;;;28.80;57.50;28.60;95981.00;;;;5071517;28;20216;-85
2023/07/28 10:10:18;;;;;;;2.30;1.33;;;28.80;57.40;28.70;95989.00;;;;5072754;28;20283;-84
2023/07/28 10:12:49;;;;;;;1.55;1.45;;;28.90;56.90;28.70;95990.00;;;;5071831;28;20711;-84
2023/07/28 10:15:19;;;;;;;2.42;1.40;;;28.90;56.00;28.70;95987.00;;;;5070015;28;20204;-83
2023/07/28 10:17:52;;;;;;;1.85;1.25;;;28.90;55.70;28.70;95989.00;;;;5070341;28;20269;-84
2023/07/28 10:20:39;;;;;;;2.00;1.58;;;28.90;55.50;28.60;95985.00;;;;5077924;28;20563;-85
2023/07/28 10:23:12;;;;;;;0.95;0.95;;;28.90;54.80;28.70;95995.00;;;;5064027;28;20231;-84
2023/07/28 10:25:43;;;;;;;4.07;1.48;;;28.90;55.20;28.60;95997.00;;;;5049009;28;20202;-85
2023/07/28 10:28:31;;;;;;;1.35;1.25;;;28.90;54.70;28.60;95993.00;;;;5075351;28;20574;-85
2023/07/28 10:31:02;;;;;;;1.27;1.15;;;28.90;54.40;28.60;95994.00;;;;5076690;28;20203;-83
2023/07/28 10:33:33;;;;;;;1.17;1.13;;;28.90;54.80;28.60;95992.00;;;;5073750;28;20604;-85
2023/07/28 10:36:01;;;;;;;2.50;1.20;;;28.90;54.50;28.50;96003.00;;;;5091161;28;20302;-84
2023/07/28 10:38:36;;;;;;;1.30;1.20;;;28.80;54.50;28.50;95999.00;;;;5089720;28;20192;-85
2023/07/28 10:41:12;;;;;;;1.50;1.30;;;28.80;53.90;28.50;95998.00;;;;5078237;28;20200;-85
2023/07/28 10:43:40;;;;;;;1.40;1.30;;;28.80;53.80;28.40;96006.00;;;;5083768;28;20686;-84
2023/07/28 10:46:11;;;;;;;1.73;1.13;;;28.70;54.30;28.40;95999.00;;;;5075164;28;20216;-84
2023/07/28 10:48:44;;;;;;;1.20;1.10;;;28.70;54.00;28.30;96000.00;;;;5068271;28;20256;-86
2023/07/28 10:51:12;;;;;;;1.73;1.15;;;28.70;54.40;28.30;96003.00;;;;5076161;28;20210;-85
2023/07/28 10:53:40;;;;;;;1.08;1.00;;;28.60;54.20;28.20;96010.00;;;;5074647;28;20216;-83
2023/07/28 10:56:10;;;;;;;1.48;1.38;;;28.60;54.40;28.20;96013.00;;;;5069723;28;20262;-85
2023/07/28 10:58:38;;;;;;;1.48;1.38;;;28.50;54.10;28.20;96024.00;;;;5073451;28;20668;-86
2023/07/28 11:01:05;;;;;;;1.23;1.15;;;28.50;54.50;28.10;96020.00;;;;5085803;28;20192;-85